createdAt,value
2019-05-01T00:00:50.740Z,100334.97
2019-05-01T00:05:56.554Z,100326.95
2019-05-01T00:10:58.635Z,100330.98
2019-05-01T00:16:00.770Z,100326.06
2019-05-01T00:21:02.852Z,100328.06
2019-05-01T00:26:05.103Z,100316.74
2019-05-01T00:31:07.422Z,100323.31
2019-05-01T00:36:09.507Z,100323.48
2019-05-01T00:41:11.589Z,100314.00
2019-05-01T00:46:13.726Z,100303.94
2019-05-01T00:51:15.860Z,100303.55
2019-05-01T00:56:40.124Z,100300.19
2019-05-01T01:02:00.308Z,100293.09
2019-05-01T01:07:02.500Z,100294.34
2019-05-01T01:12:04.559Z,100282.71
2019-05-01T01:17:06.593Z,100276.70
2019-05-01T01:22:08.642Z,100285.84
2019-05-01T01:27:11.010Z,100279.16
2019-05-01T01:32:13.193Z,100275.44
2019-05-01T01:37:15.239Z,100279.75
2019-05-01T01:42:17.997Z,100269.95
2019-05-01T01:47:20.071Z,100269.81
2019-05-01T01:52:22.676Z,100263.63
2019-05-01T01:57:25.058Z,100264.44
2019-05-01T02:02:35.935Z,100260.73
2019-05-01T02:07:38.190Z,100245.83
2019-05-01T02:12:40.622Z,100246.75
2019-05-01T02:17:42.664Z,100253.23
2019-05-01T02:22:44.750Z,100255.42
2019-05-01T02:28:12.122Z,100248.67
2019-05-01T02:33:27.660Z,100244.27
2019-05-01T02:38:31.400Z,100244.33
2019-05-01T02:43:37.217Z,100244.05
2019-05-01T02:48:43.956Z,100237.32
2019-05-01T02:53:47.736Z,100234.55
2019-05-01T02:58:53.526Z,100238.36
2019-05-01T03:03:56.936Z,100232.72
2019-05-01T03:09:00.552Z,100233.23
2019-05-01T03:14:03.489Z,100222.88
2019-05-01T03:19:10.059Z,100224.20
2019-05-01T03:24:16.950Z,100218.60
2019-05-01T03:29:19.829Z,100216.45
2019-05-01T03:34:22.189Z,100210.37
2019-05-01T03:39:24.218Z,100214.98
2019-05-01T03:44:26.442Z,100203.93
2019-05-01T03:49:28.855Z,100211.36
2019-05-01T03:54:32.152Z,100207.55
2019-05-01T03:59:34.696Z,100207.88
2019-05-01T04:04:37.085Z,100206.23
2019-05-01T04:09:40.287Z,100209.01
2019-05-01T04:14:42.631Z,100202.75
2019-05-01T04:19:45.071Z,100215.59
2019-05-01T04:24:48.085Z,100208.48
2019-05-01T04:30:02.342Z,100210.42
2019-05-01T04:35:19.366Z,100218.65
2019-05-01T04:40:21.597Z,100221.75
2019-05-01T04:45:24.358Z,100220.61
2019-05-01T04:50:26.992Z,100216.81
2019-05-01T04:55:30.491Z,100223.25
2019-05-01T05:00:33.249Z,100236.28
2019-05-01T05:05:35.500Z,100239.86
2019-05-01T05:10:39.620Z,100236.90
2019-05-01T05:15:50.781Z,100243.99
2019-05-01T05:20:52.907Z,100240.23
2019-05-01T05:25:55.326Z,100245.41
2019-05-01T05:30:58.168Z,100241.34
2019-05-01T05:36:02.727Z,100244.67
2019-05-01T05:41:05.575Z,100239.59
2019-05-01T05:46:07.867Z,100230.84
2019-05-01T05:51:19.622Z,100240.25
2019-05-01T05:56:49.080Z,100227.73
2019-05-01T06:02:10.222Z,100233.37
2019-05-01T06:07:32.452Z,100235.52
2019-05-01T06:12:46.893Z,100242.82
2019-05-01T06:18:22.658Z,100238.77
2019-05-01T06:23:41.928Z,100241.17
2019-05-01T06:28:44.063Z,100242.75
2019-05-01T06:33:48.673Z,100237.67
2019-05-01T06:38:50.394Z,100247.86
2019-05-01T06:44:04.049Z,100246.14
2019-05-01T06:49:30.970Z,100241.50
2019-05-01T06:54:35.188Z,100238.97
2019-05-01T06:59:38.830Z,100230.89
2019-05-01T07:04:42.943Z,100229.50
2019-05-01T07:09:49.227Z,100229.69
2019-05-01T07:14:52.118Z,100232.88
2019-05-01T07:20:19.064Z,100234.39
2019-05-01T07:25:21.247Z,100235.02
2019-05-01T07:30:49.803Z,100234.11
2019-05-01T07:35:54.032Z,100232.39
2019-05-01T07:40:58.851Z,100224.09
2019-05-01T07:46:21.429Z,100222.26
2019-05-01T07:51:23.716Z,100223.66
2019-05-01T07:56:28.245Z,100221.59
2019-05-01T08:01:49.910Z,100221.45
2019-05-01T08:06:51.997Z,100229.86
2019-05-01T08:11:53.987Z,100230.89
2019-05-01T08:16:56.096Z,100234.78
2019-05-01T08:22:13.635Z,100229.68
2019-05-01T08:27:28.624Z,100235.72
2019-05-01T08:32:42.106Z,100236.72
2019-05-01T08:37:44.276Z,100246.45
2019-05-01T08:42:46.867Z,100238.98
2019-05-01T08:48:01.523Z,100242.58
2019-05-01T08:53:04.149Z,100231.73
2019-05-01T08:58:08.806Z,100228.05
2019-05-01T09:03:13.547Z,100230.57
2019-05-01T09:08:15.226Z,100227.34
2019-05-01T09:13:18.950Z,100234.27
2019-05-01T09:18:21.245Z,100237.80
2019-05-01T09:23:23.399Z,100230.08
2019-05-01T09:28:29.819Z,100233.98
2019-05-01T09:33:32.125Z,100221.36
2019-05-01T09:38:34.367Z,100218.97
2019-05-01T09:43:37.082Z,100214.83
2019-05-01T09:48:39.634Z,100214.17
2019-05-01T09:53:55.884Z,100207.37
2019-05-01T09:58:57.981Z,100208.33
2019-05-01T10:04:00.226Z,100202.66
2019-05-01T10:09:04.882Z,100200.98
2019-05-01T10:14:06.976Z,100186.14
2019-05-01T10:19:09.018Z,100186.70
2019-05-01T10:24:11.077Z,100187.52
2019-05-01T10:29:35.786Z,100185.20
2019-05-01T10:34:51.110Z,100170.24
2019-05-01T10:39:54.100Z,100179.04
2019-05-01T10:44:57.536Z,100169.52
2019-05-01T10:49:59.621Z,100166.63
2019-05-01T10:55:03.754Z,100163.08
2019-05-01T11:00:06.321Z,100152.97
2019-05-01T11:05:08.941Z,100160.53
2019-05-01T11:10:11.117Z,100151.48
2019-05-01T11:15:14.497Z,100154.53
2019-05-01T11:20:16.558Z,100147.98
2019-05-01T11:25:20.185Z,100155.11
2019-05-01T11:30:22.591Z,100138.27
2019-05-01T11:35:41.994Z,100135.87
2019-05-01T11:40:48.639Z,100143.08
2019-05-01T11:45:51.347Z,100139.42
2019-05-01T11:50:55.392Z,100125.84
2019-05-01T11:55:57.473Z,100131.58
2019-05-01T12:01:01.334Z,100130.31
2019-05-01T12:06:03.410Z,100127.50
2019-05-01T12:11:08.256Z,100121.36
2019-05-01T12:16:17.637Z,100113.16
2019-05-01T12:21:19.708Z,100105.84
2019-05-01T12:26:21.800Z,100104.48
2019-05-01T12:31:23.857Z,100104.53
2019-05-01T12:36:36.133Z,100100.23
2019-05-01T12:41:35.634Z,100092.01
2019-05-01T12:46:44.170Z,100093.30
2019-05-01T12:51:48.170Z,100082.42
2019-05-01T12:56:53.803Z,100087.73
2019-05-01T13:01:55.875Z,100079.45
2019-05-01T13:06:59.133Z,100079.81
2019-05-01T13:12:01.228Z,100070.48
2019-05-01T13:17:03.241Z,100067.43
2019-05-01T13:22:05.468Z,100063.93
2019-05-01T13:27:13.714Z,100056.78
2019-05-01T13:32:38.341Z,100054.72
2019-05-01T13:37:40.508Z,100042.03
2019-05-01T13:42:42.574Z,100038.67
2019-05-01T13:47:44.931Z,100025.12
2019-05-01T13:52:47.176Z,100023.51
2019-05-01T13:57:49.219Z,100017.68
2019-05-01T14:02:51.299Z,100014.79
2019-05-01T14:07:53.424Z,100003.53
2019-05-01T14:12:55.489Z,99995.66
2019-05-01T14:17:57.582Z,99992.40
2019-05-01T14:23:14.775Z,99994.56
2019-05-01T14:28:16.902Z,99982.97
2019-05-01T14:33:18.963Z,99977.98
2019-05-01T14:38:21.028Z,99978.30
2019-05-01T14:43:23.155Z,99973.16
2019-05-01T14:48:25.486Z,99969.70
2019-05-01T14:53:27.627Z,99968.27
2019-05-01T14:58:29.698Z,99967.77
2019-05-01T15:03:31.887Z,99966.64
2019-05-01T15:08:33.975Z,99955.87
2019-05-01T15:13:48.748Z,99952.00
2019-05-01T15:19:02.751Z,99946.16
2019-05-01T15:24:04.809Z,99950.27
2019-05-01T15:29:06.864Z,99940.53
2019-05-01T15:34:08.932Z,99939.39
2019-05-01T15:39:17.409Z,99936.12
2019-05-01T15:44:32.120Z,99931.41
2019-05-01T15:49:34.252Z,99929.39
2019-05-01T15:54:36.339Z,99928.37
2019-05-01T15:59:38.523Z,99926.12
2019-05-01T16:04:40.748Z,99927.75
2019-05-01T16:09:42.791Z,99922.73
2019-05-01T16:14:48.994Z,99920.90
2019-05-01T16:19:51.123Z,99908.82
2019-05-01T16:24:53.233Z,99912.39
2019-05-01T16:29:55.284Z,99912.81
2019-05-01T16:34:57.362Z,99919.15
2019-05-01T16:40:09.002Z,99911.38
2019-05-01T16:45:11.867Z,99907.89
2019-05-01T16:50:14.301Z,99902.27
2019-05-01T16:55:17.043Z,99893.48
2019-05-01T17:00:26.379Z,99893.78
2019-05-01T17:05:46.391Z,99890.82
2019-05-01T17:10:49.275Z,99882.60
2019-05-01T17:15:51.316Z,99887.66
2019-05-01T17:20:53.431Z,99888.05
2019-05-01T17:25:55.515Z,99882.82
2019-05-01T17:31:00.250Z,99888.02
2019-05-01T17:36:02.362Z,99885.65
2019-05-01T17:41:04.617Z,99879.39
2019-05-01T17:46:10.882Z,99882.84
2019-05-01T17:51:10.798Z,99876.98
2019-05-01T17:56:15.356Z,99884.05
2019-05-01T18:01:37.437Z,99885.21
2019-05-01T18:06:46.568Z,99878.54
2019-05-01T18:11:47.432Z,99883.27
2019-05-01T18:16:50.430Z,99880.58
2019-05-01T18:22:02.290Z,99882.08
2019-05-01T18:27:19.148Z,99881.09
2019-05-01T18:32:27.582Z,99880.11
2019-05-01T18:37:36.359Z,99876.09
2019-05-01T18:42:38.558Z,99872.55
2019-05-01T18:47:40.632Z,99872.31
2019-05-01T18:52:42.667Z,99879.30
2019-05-01T18:57:44.792Z,99875.27
2019-05-01T19:02:46.902Z,99881.91
2019-05-01T19:07:49.138Z,99885.75
2019-05-01T19:12:51.238Z,99887.39
2019-05-01T19:17:53.388Z,99884.57
2019-05-01T19:22:55.455Z,99892.52
2019-05-01T19:27:57.574Z,99887.39
2019-05-01T19:32:59.643Z,99886.52
2019-05-01T19:38:01.859Z,99883.66
2019-05-01T19:43:04.102Z,99884.41
2019-05-01T19:48:06.509Z,99881.83
2019-05-01T19:53:10.158Z,99879.79
2019-05-01T19:58:12.566Z,99871.66
2019-05-01T20:03:14.985Z,99871.58
2019-05-01T20:08:17.072Z,99873.61
2019-05-01T20:13:19.171Z,99869.76
2019-05-01T20:18:21.268Z,99869.67
2019-05-01T20:23:26.262Z,99870.91
2019-05-01T20:28:28.430Z,99863.02
2019-05-01T20:33:33.424Z,99863.25
2019-05-01T20:38:34.559Z,99866.31
2019-05-01T20:43:38.159Z,99862.42
2019-05-01T20:48:40.653Z,99863.33
2019-05-01T20:53:42.797Z,99857.41
2019-05-01T20:58:45.116Z,99861.41
2019-05-01T21:03:57.291Z,99855.52
2019-05-01T21:09:15.856Z,99852.03
2019-05-01T21:14:22.750Z,99849.13
2019-05-01T21:19:23.357Z,99844.22
2019-05-01T21:24:26.042Z,99850.87
2019-05-01T21:29:28.204Z,99850.28
2019-05-01T21:34:30.289Z,99851.17
2019-05-01T21:39:33.482Z,99842.30
2019-05-01T21:44:35.563Z,99838.75
2019-05-01T21:49:37.625Z,99833.19
2019-05-01T21:54:39.762Z,99834.88
2019-05-01T21:59:44.691Z,99832.80
2019-05-01T22:04:45.855Z,99826.20
2019-05-01T22:09:50.571Z,99821.04
2019-05-01T22:14:58.549Z,99826.80
2019-05-01T22:20:00.857Z,99819.15
2019-05-01T22:25:29.521Z,99816.66
2019-05-01T22:30:42.239Z,99811.19
2019-05-01T22:35:45.994Z,99805.42
2019-05-01T22:41:22.869Z,99800.98
2019-05-01T22:46:28.622Z,99800.63
2019-05-01T22:51:30.712Z,99799.67
2019-05-01T22:56:32.789Z,99795.54
2019-05-01T23:01:35.176Z,99784.14
2019-05-01T23:06:41.862Z,99783.70
2019-05-01T23:11:45.194Z,99779.00
2019-05-01T23:16:58.663Z,99778.09
2019-05-01T23:21:59.352Z,99779.34
2019-05-01T23:27:01.435Z,99768.70
2019-05-01T23:32:04.701Z,99762.95
2019-05-01T23:37:06.817Z,99760.36
2019-05-01T23:42:08.911Z,99748.21
2019-05-01T23:47:10.982Z,99754.05
2019-05-01T23:52:13.217Z,99740.58
2019-05-01T23:57:18.800Z,99738.16
